Terminal Aerodrome Forecast
Issued by NWS

Home | Current Version | Previous Version | Text Only | Print | Product List | Glossary Off
Versions: 1 2 3 4 5 6 7 8 9 10 11 12 13 14 15 16 17 18 19 20 21 22 23 24 25 26 27 28 29 30 31 32 33 34 35

000
FTUS43 KLOT 261100
TAFMDW
TAF
KMDW 261127Z 2612/2712 31004KT P6SM FEW020 SCT120 BKN250
     FM261600 18004KT P6SM OVC070
     FM261900 17006KT 4SM -SN BR SCT015 OVC025
      TEMPO 2620/2624 2SM -SN BR OVC015
     FM270200 14007KT P6SM -SN SCT010 OVC015
     FM270500 08004KT 5SM -SN BR OVC008
     FM271000 03005KT P6SM OVC010=

USA.gov is the U.S. government's official web portal to all federal, state and local government web resources and services.